createdAt,value
2023-01-06T00:00:34.521Z,21.00
2023-01-06T00:03:02.299Z,20.90
2023-01-06T00:05:29.627Z,20.90
2023-01-06T00:07:56.284Z,20.90
2023-01-06T00:10:23.240Z,20.90
2023-01-06T00:12:50.084Z,20.90
2023-01-06T00:15:17.443Z,20.90
2023-01-06T00:17:44.300Z,20.90
2023-01-06T00:20:11.882Z,20.90
2023-01-06T00:22:41.737Z,20.90
2023-01-06T00:25:12.186Z,20.90
2023-01-06T00:27:39.459Z,20.90
2023-01-06T00:30:07.081Z,20.90
2023-01-06T00:32:34.991Z,20.90
2023-01-06T00:35:01.836Z,20.90
2023-01-06T00:37:28.628Z,20.90
2023-01-06T00:39:55.474Z,20.90
2023-01-06T00:42:22.694Z,20.90
2023-01-06T00:44:49.660Z,20.90
2023-01-06T00:47:16.656Z,21.00
2023-01-06T00:49:43.384Z,20.90
2023-01-06T00:52:10.165Z,21.00
2023-01-06T00:54:37.322Z,21.00
2023-01-06T00:57:06.815Z,20.90
2023-01-06T00:59:34.587Z,21.00
2023-01-06T01:02:01.974Z,20.90
2023-01-06T01:04:29.325Z,20.90
2023-01-06T01:06:56.202Z,20.90
2023-01-06T01:09:25.169Z,20.90
2023-01-06T01:12:10.345Z,20.90
2023-01-06T01:14:49.095Z,20.90
2023-01-06T01:17:21.268Z,20.90
2023-01-06T01:19:48.429Z,20.90
2023-01-06T01:22:15.372Z,20.90
2023-01-06T01:24:42.143Z,20.90
2023-01-06T01:27:08.953Z,20.90
2023-01-06T01:29:36.572Z,20.90
2023-01-06T01:32:03.502Z,20.90
2023-01-06T01:34:30.220Z,20.90
2023-01-06T01:36:57.000Z,20.90
2023-01-06T01:39:25.718Z,20.90
2023-01-06T01:41:52.895Z,20.90
2023-01-06T01:44:50.795Z,20.90
2023-01-06T01:47:30.889Z,20.90
2023-01-06T01:50:01.287Z,20.90
2023-01-06T01:52:28.166Z,20.90
2023-01-06T01:54:55.117Z,20.90
2023-01-06T01:57:31.740Z,20.90
2023-01-06T01:59:58.812Z,20.90
2023-01-06T02:02:25.624Z,20.90
2023-01-06T02:04:54.284Z,20.90
2023-01-06T02:07:23.023Z,20.90
2023-01-06T02:09:59.982Z,21.00
2023-01-06T02:12:26.642Z,20.90
2023-01-06T02:14:53.323Z,21.00
2023-01-06T02:17:24.225Z,20.90
2023-01-06T02:19:53.927Z,20.90
2023-01-06T02:22:35.889Z,20.90
2023-01-06T02:25:24.120Z,20.90
2023-01-06T02:27:56.855Z,20.90
2023-01-06T02:30:41.591Z,21.00
2023-01-06T02:33:21.639Z,21.00
2023-01-06T02:35:57.901Z,21.00
2023-01-06T02:38:45.669Z,21.00
2023-01-06T02:41:27.245Z,20.90
2023-01-06T02:44:04.643Z,20.90
2023-01-06T02:47:02.799Z,20.90
2023-01-06T02:49:32.523Z,20.90
2023-01-06T02:52:42.707Z,20.90
2023-01-06T02:55:30.566Z,20.90
2023-01-06T02:58:05.450Z,20.90
2023-01-06T03:00:52.120Z,20.90
2023-01-06T03:03:21.022Z,20.90
2023-01-06T03:05:49.698Z,20.90
2023-01-06T03:08:18.903Z,20.90
2023-01-06T03:10:45.641Z,20.90
2023-01-06T03:13:32.404Z,20.90
2023-01-06T03:15:59.184Z,20.90
2023-01-06T03:18:25.940Z,20.90
2023-01-06T03:20:53.355Z,20.90
2023-01-06T03:23:20.343Z,20.90
2023-01-06T03:25:47.029Z,21.00
2023-01-06T03:28:14.280Z,21.00
2023-01-06T03:31:09.060Z,21.00
2023-01-06T03:33:45.694Z,21.00
2023-01-06T03:36:38.494Z,21.00
2023-01-06T03:39:05.129Z,20.90
2023-01-06T03:41:53.634Z,20.90
2023-01-06T03:44:37.432Z,20.90
2023-01-06T03:47:26.242Z,20.90
2023-01-06T03:50:04.280Z,20.90
2023-01-06T03:52:31.889Z,20.90
2023-01-06T03:55:18.859Z,20.90
2023-01-06T03:57:49.891Z,20.90
2023-01-06T04:00:24.685Z,20.90
2023-01-06T04:02:51.358Z,20.90
2023-01-06T04:05:19.855Z,20.90
2023-01-06T04:07:46.892Z,20.90
2023-01-06T04:10:14.814Z,20.90
2023-01-06T04:12:41.538Z,20.90
2023-01-06T04:15:12.161Z,20.90
2023-01-06T04:17:39.229Z,20.90
2023-01-06T04:20:07.135Z,20.90
2023-01-06T04:22:33.848Z,20.90
2023-01-06T04:25:00.544Z,20.90
2023-01-06T04:27:27.293Z,20.90
2023-01-06T04:29:54.039Z,20.90
2023-01-06T04:32:20.743Z,20.90
2023-01-06T04:34:48.346Z,20.90
2023-01-06T04:37:15.016Z,20.90
2023-01-06T04:39:41.937Z,20.90
2023-01-06T04:42:09.857Z,20.90
2023-01-06T04:44:36.524Z,20.90
2023-01-06T04:47:03.268Z,20.90
2023-01-06T04:49:30.302Z,20.90
2023-01-06T04:51:57.019Z,21.00
2023-01-06T04:54:23.698Z,20.90
2023-01-06T04:56:50.427Z,20.90
2023-01-06T04:59:17.535Z,20.90
2023-01-06T05:01:44.408Z,20.90
2023-01-06T05:04:11.220Z,20.90
2023-01-06T05:06:39.477Z,20.90
2023-01-06T05:09:06.711Z,20.90
2023-01-06T05:11:33.463Z,20.90
2023-01-06T05:14:00.190Z,20.90
2023-01-06T05:16:31.489Z,20.90
2023-01-06T05:18:58.505Z,20.90
2023-01-06T05:21:26.895Z,21.00
2023-01-06T05:23:53.655Z,20.90
2023-01-06T05:26:23.731Z,20.90
2023-01-06T05:28:51.167Z,21.00
2023-01-06T05:31:18.221Z,21.00
2023-01-06T05:33:45.542Z,21.00
2023-01-06T05:36:13.574Z,21.00
2023-01-06T05:38:40.457Z,20.90
2023-01-06T05:41:07.231Z,20.90
2023-01-06T05:43:34.714Z,20.90
2023-01-06T05:46:08.301Z,20.90
2023-01-06T05:48:35.207Z,20.90
2023-01-06T05:51:09.610Z,20.90
2023-01-06T05:53:37.359Z,20.90
2023-01-06T05:56:04.889Z,20.90
2023-01-06T05:58:33.460Z,20.90
2023-01-06T06:01:00.930Z,20.90
2023-01-06T06:03:27.680Z,20.90
2023-01-06T06:05:54.379Z,20.90
2023-01-06T06:08:22.116Z,20.90
2023-01-06T06:10:48.771Z,20.90
2023-01-06T06:13:15.458Z,20.90
2023-01-06T06:15:42.124Z,20.90
2023-01-06T06:18:08.799Z,20.90
2023-01-06T06:20:35.549Z,20.90
2023-01-06T06:23:02.262Z,20.90
2023-01-06T06:25:29.588Z,20.90
2023-01-06T06:27:59.555Z,20.90
2023-01-06T06:30:26.241Z,20.90
2023-01-06T06:32:54.271Z,20.90
2023-01-06T06:35:20.966Z,20.90
2023-01-06T06:37:47.748Z,20.90
2023-01-06T06:40:14.531Z,20.90
2023-01-06T06:42:41.194Z,20.90
2023-01-06T06:45:08.389Z,20.90
2023-01-06T06:47:35.090Z,20.90
2023-01-06T06:50:01.767Z,20.90
2023-01-06T06:52:28.476Z,20.90
2023-01-06T06:54:55.167Z,20.90
2023-01-06T06:57:21.872Z,20.90
2023-01-06T06:59:49.409Z,20.90
2023-01-06T07:02:16.427Z,20.90
2023-01-06T07:04:43.200Z,20.90
2023-01-06T07:07:09.932Z,20.90
2023-01-06T07:09:36.603Z,20.90
2023-01-06T07:12:03.624Z,20.90
2023-01-06T07:14:30.327Z,20.90
2023-01-06T07:17:00.939Z,20.90
2023-01-06T07:19:27.759Z,20.90
2023-01-06T07:21:56.325Z,20.90
2023-01-06T07:24:23.320Z,20.90
2023-01-06T07:26:50.017Z,20.90
2023-01-06T07:29:16.756Z,20.90
2023-01-06T07:31:43.460Z,20.90
2023-01-06T07:34:10.164Z,20.90
2023-01-06T07:36:36.871Z,20.90
2023-01-06T07:39:03.564Z,20.90
2023-01-06T07:41:31.626Z,20.90
2023-01-06T07:43:58.391Z,20.90
2023-01-06T07:46:26.844Z,20.90
2023-01-06T07:48:53.597Z,20.90
2023-01-06T07:51:20.323Z,20.90
2023-01-06T07:53:47.201Z,20.90
2023-01-06T07:56:14.479Z,20.90
2023-01-06T07:58:41.186Z,20.90
2023-01-06T08:01:08.428Z,20.90
2023-01-06T08:03:35.184Z,20.90
2023-01-06T08:06:07.009Z,21.00
2023-01-06T08:08:38.360Z,21.00
2023-01-06T08:11:06.116Z,20.90
2023-01-06T08:13:33.955Z,21.00
2023-01-06T08:16:04.633Z,21.00
2023-01-06T08:18:31.347Z,21.00
2023-01-06T08:21:06.136Z,21.00
2023-01-06T08:23:33.801Z,20.90
2023-01-06T08:26:13.687Z,20.90
2023-01-06T08:28:41.677Z,20.90
2023-01-06T08:31:13.022Z,20.90
2023-01-06T08:33:40.427Z,20.90
2023-01-06T08:36:08.641Z,21.00
2023-01-06T08:38:36.124Z,20.90
2023-01-06T08:41:03.495Z,21.00
2023-01-06T08:43:32.064Z,21.00
2023-01-06T08:46:03.988Z,20.90
2023-01-06T08:48:31.164Z,21.00
2023-01-06T08:51:03.171Z,21.00
2023-01-06T08:53:30.314Z,20.90
2023-01-06T08:55:56.980Z,20.90
2023-01-06T08:58:23.637Z,21.00
2023-01-06T09:00:51.327Z,21.00
2023-01-06T09:03:18.096Z,21.00
2023-01-06T09:05:51.328Z,21.00
2023-01-06T09:08:18.094Z,21.00
2023-01-06T09:10:45.079Z,21.00
2023-01-06T09:13:11.967Z,21.00
2023-01-06T09:15:42.347Z,21.00
2023-01-06T09:18:10.395Z,21.00
2023-01-06T09:20:37.680Z,21.10
2023-01-06T09:23:04.857Z,21.10
2023-01-06T09:25:32.946Z,21.10
2023-01-06T09:28:01.582Z,21.10
2023-01-06T09:30:28.653Z,21.10
2023-01-06T09:32:56.140Z,21.10
2023-01-06T09:35:23.283Z,21.10
2023-01-06T09:37:50.169Z,21.10
2023-01-06T09:40:18.104Z,21.10
2023-01-06T09:42:56.319Z,21.10
2023-01-06T09:45:42.474Z,21.10
2023-01-06T09:48:13.917Z,21.10
2023-01-06T09:50:42.183Z,21.30
2023-01-06T09:53:24.352Z,21.40
2023-01-06T09:56:00.664Z,21.30
2023-01-06T09:58:41.703Z,21.30
2023-01-06T10:01:13.360Z,21.30
2023-01-06T10:03:47.458Z,21.20
2023-01-06T10:06:37.737Z,21.20
2023-01-06T10:09:42.758Z,21.20
2023-01-06T10:12:47.948Z,21.20
2023-01-06T10:15:19.393Z,21.10
2023-01-06T10:17:49.004Z,21.10
2023-01-06T10:20:44.642Z,21.20
2023-01-06T10:23:32.811Z,21.10
2023-01-06T10:26:22.153Z,21.10
2023-01-06T10:28:53.214Z,21.10
2023-01-06T10:31:25.139Z,21.10
2023-01-06T10:33:53.268Z,21.10
2023-01-06T10:36:31.908Z,21.20
2023-01-06T10:38:59.857Z,21.10
2023-01-06T10:42:17.699Z,21.10
2023-01-06T10:44:44.450Z,21.10
2023-01-06T10:47:28.259Z,21.10
2023-01-06T10:49:55.102Z,21.10
2023-01-06T10:52:22.506Z,21.20
2023-01-06T10:54:51.192Z,21.20
2023-01-06T10:57:23.865Z,21.20
2023-01-06T11:00:10.255Z,21.20
2023-01-06T11:02:37.064Z,21.30
2023-01-06T11:05:04.016Z,21.30
2023-01-06T11:07:31.666Z,21.30
2023-01-06T11:10:00.822Z,21.30
2023-01-06T11:12:29.955Z,21.30
2023-01-06T11:15:05.970Z,21.20
2023-01-06T11:17:32.647Z,21.30
2023-01-06T11:20:13.925Z,21.40
2023-01-06T11:22:41.668Z,21.40
2023-01-06T11:25:20.292Z,21.50
2023-01-06T11:27:47.757Z,21.50
2023-01-06T11:30:38.071Z,21.40
2023-01-06T11:33:05.780Z,21.50
2023-01-06T11:35:32.810Z,21.50
2023-01-06T11:38:01.223Z,21.40
2023-01-06T11:40:32.254Z,21.40
2023-01-06T11:43:01.890Z,21.40
2023-01-06T11:45:37.467Z,21.50
2023-01-06T11:48:12.547Z,21.40
2023-01-06T11:50:39.260Z,21.40
2023-01-06T11:53:16.105Z,21.30
2023-01-06T11:55:43.100Z,21.30
2023-01-06T11:58:16.319Z,21.30
2023-01-06T12:01:06.503Z,21.30
2023-01-06T12:03:41.845Z,21.20
2023-01-06T12:06:24.649Z,21.20
2023-01-06T12:09:04.819Z,21.20
2023-01-06T12:11:48.505Z,21.20
2023-01-06T12:14:29.446Z,21.20
2023-01-06T12:17:01.529Z,21.20
2023-01-06T12:19:51.010Z,21.30
2023-01-06T12:22:29.912Z,21.40
2023-01-06T12:24:57.430Z,21.50
2023-01-06T12:27:42.636Z,21.50
2023-01-06T12:30:16.434Z,21.50
2023-01-06T12:32:44.849Z,21.60
2023-01-06T12:35:18.263Z,21.50
2023-01-06T12:37:50.216Z,21.40
2023-01-06T12:40:36.269Z,21.50
2023-01-06T12:43:17.145Z,21.40
2023-01-06T12:46:05.832Z,21.40
2023-01-06T12:48:50.112Z,21.40
2023-01-06T12:51:19.655Z,21.40
2023-01-06T12:54:11.127Z,21.60
2023-01-06T12:57:09.467Z,21.60
2023-01-06T12:59:50.656Z,21.60
2023-01-06T13:02:41.879Z,21.60
2023-01-06T13:05:48.621Z,21.50
2023-01-06T13:08:19.518Z,21.50
2023-01-06T13:10:53.348Z,21.50
2023-01-06T13:13:46.713Z,21.50
2023-01-06T13:16:38.283Z,21.50
2023-01-06T13:19:13.046Z,21.60
2023-01-06T13:21:39.750Z,21.60
2023-01-06T13:24:27.021Z,21.60
2023-01-06T13:27:12.827Z,21.50
2023-01-06T13:29:44.735Z,21.50
2023-01-06T13:32:39.330Z,21.50
2023-01-06T13:35:31.148Z,21.50
2023-01-06T13:38:23.203Z,21.50
2023-01-06T13:40:51.213Z,21.60
2023-01-06T13:43:26.167Z,21.60
2023-01-06T13:45:59.706Z,21.60
2023-01-06T13:48:29.505Z,21.50
2023-01-06T13:50:56.348Z,21.60
2023-01-06T13:53:23.630Z,21.50
2023-01-06T13:56:49.532Z,21.50
2023-01-06T13:59:39.233Z,21.50
2023-01-06T14:02:14.055Z,21.50
2023-01-06T14:04:42.770Z,21.60
2023-01-06T14:07:09.720Z,21.60
2023-01-06T14:09:38.925Z,21.50
2023-01-06T14:12:09.663Z,21.50
2023-01-06T14:14:39.067Z,21.50
2023-01-06T14:17:06.287Z,21.50
2023-01-06T14:19:38.151Z,21.50
2023-01-06T14:22:17.687Z,21.50
2023-01-06T14:24:49.550Z,21.50
2023-01-06T14:27:16.212Z,21.50
2023-01-06T14:29:43.228Z,21.50
2023-01-06T14:32:16.846Z,21.60
2023-01-06T14:35:09.956Z,21.60
2023-01-06T14:37:51.397Z,21.60
2023-01-06T14:40:45.237Z,21.60
2023-01-06T14:43:47.514Z,21.60
2023-01-06T14:46:26.553Z,21.60
2023-01-06T14:49:04.715Z,21.60
2023-01-06T14:51:32.102Z,21.60
2023-01-06T14:54:07.874Z,21.60
2023-01-06T14:56:34.776Z,21.50
2023-01-06T14:59:21.263Z,21.50
2023-01-06T15:02:15.016Z,21.50
2023-01-06T15:04:42.260Z,21.50
2023-01-06T15:07:17.846Z,21.50
2023-01-06T15:09:45.933Z,21.50
2023-01-06T15:12:31.990Z,21.50
2023-01-06T15:15:18.792Z,21.50
2023-01-06T15:17:45.494Z,21.50
2023-01-06T15:20:13.001Z,21.50
2023-01-06T15:22:39.786Z,21.50
2023-01-06T15:25:07.550Z,21.50
2023-01-06T15:27:34.403Z,21.50
2023-01-06T15:30:01.899Z,21.50
2023-01-06T15:32:28.755Z,21.40
2023-01-06T15:34:56.738Z,21.40
2023-01-06T15:37:28.023Z,21.40
2023-01-06T15:39:54.715Z,21.40
2023-01-06T15:42:25.120Z,21.40
2023-01-06T15:44:57.288Z,21.40
2023-01-06T15:47:35.409Z,21.40
2023-01-06T15:50:06.623Z,21.40
2023-01-06T15:52:44.332Z,21.40
2023-01-06T15:55:33.000Z,21.30
2023-01-06T15:58:17.231Z,21.30
2023-01-06T16:00:48.686Z,21.30
2023-01-06T16:03:22.425Z,21.30
2023-01-06T16:05:51.121Z,21.30
2023-01-06T16:08:26.472Z,21.30
2023-01-06T16:11:17.456Z,21.30
2023-01-06T16:13:57.581Z,21.30
2023-01-06T16:16:33.418Z,21.20
2023-01-06T16:19:11.344Z,21.20
2023-01-06T16:21:38.153Z,21.20
2023-01-06T16:24:05.348Z,21.20
2023-01-06T16:26:34.057Z,21.20
2023-01-06T16:29:02.447Z,21.20
2023-01-06T16:31:32.512Z,21.20
2023-01-06T16:34:28.387Z,21.10
2023-01-06T16:36:59.162Z,21.00
2023-01-06T16:39:26.028Z,21.00
2023-01-06T16:41:58.960Z,21.00
2023-01-06T16:44:26.051Z,21.10
2023-01-06T16:46:52.916Z,21.00
2023-01-06T16:49:19.727Z,21.00
2023-01-06T16:51:46.497Z,20.90
2023-01-06T16:54:13.867Z,21.00
2023-01-06T16:56:40.573Z,20.90
2023-01-06T16:59:17.881Z,20.90
2023-01-06T17:01:45.137Z,20.90
2023-01-06T17:04:12.284Z,20.90
2023-01-06T17:06:39.458Z,21.00
2023-01-06T17:09:22.467Z,21.00
2023-01-06T17:11:49.922Z,21.00
2023-01-06T17:14:18.250Z,21.00
2023-01-06T17:16:45.087Z,21.00
2023-01-06T17:19:22.263Z,21.00
2023-01-06T17:21:49.927Z,21.00
2023-01-06T17:24:17.128Z,21.00
2023-01-06T17:27:13.428Z,21.00
2023-01-06T17:29:40.100Z,20.90
2023-01-06T17:32:45.299Z,21.00
2023-01-06T17:35:28.544Z,20.90
2023-01-06T17:37:58.917Z,20.90
2023-01-06T17:40:29.435Z,20.90
2023-01-06T17:43:03.159Z,20.90
2023-01-06T17:45:29.920Z,20.90
2023-01-06T17:47:56.635Z,20.90
2023-01-06T17:50:28.384Z,20.90
2023-01-06T17:53:37.714Z,20.90
2023-01-06T17:56:08.859Z,20.90
2023-01-06T17:58:38.276Z,20.80
2023-01-06T18:01:08.104Z,20.80
2023-01-06T18:03:39.817Z,20.80
2023-01-06T18:06:14.203Z,20.80
2023-01-06T18:08:40.923Z,20.80
2023-01-06T18:11:15.297Z,20.80
2023-01-06T18:13:42.132Z,20.80
2023-01-06T18:16:31.797Z,20.80
2023-01-06T18:19:24.303Z,20.80
2023-01-06T18:21:51.267Z,20.80
2023-01-06T18:24:24.812Z,20.80
2023-01-06T18:26:56.627Z,20.80
2023-01-06T18:29:31.467Z,20.90
2023-01-06T18:32:20.388Z,20.90
2023-01-06T18:34:48.227Z,21.00
2023-01-06T18:37:15.040Z,21.00
2023-01-06T18:39:43.483Z,21.10
2023-01-06T18:42:37.696Z,21.10
2023-01-06T18:45:35.195Z,21.00
2023-01-06T18:48:15.164Z,21.00
2023-01-06T18:50:45.694Z,21.00
2023-01-06T18:53:15.605Z,21.10
2023-01-06T18:55:52.071Z,21.00
2023-01-06T18:58:25.142Z,21.00
2023-01-06T19:00:52.846Z,21.10
2023-01-06T19:03:23.462Z,21.10
2023-01-06T19:05:50.180Z,21.20
2023-01-06T19:08:19.782Z,21.20
2023-01-06T19:10:46.529Z,21.20
2023-01-06T19:13:19.400Z,21.20
2023-01-06T19:15:46.969Z,21.20
2023-01-06T19:18:17.393Z,21.30
2023-01-06T19:20:45.193Z,21.30
2023-01-06T19:23:18.813Z,21.10
2023-01-06T19:25:50.288Z,21.20
2023-01-06T19:28:22.362Z,21.10
2023-01-06T19:30:56.102Z,21.20
2023-01-06T19:33:29.457Z,21.10
2023-01-06T19:36:03.775Z,21.10
2023-01-06T19:38:30.935Z,21.10
2023-01-06T19:41:01.992Z,21.20
2023-01-06T19:43:33.109Z,21.20
2023-01-06T19:46:23.765Z,21.20
2023-01-06T19:48:50.475Z,21.30
2023-01-06T19:51:23.264Z,21.20
2023-01-06T19:54:02.293Z,21.20
2023-01-06T19:56:39.955Z,21.20
2023-01-06T19:59:17.044Z,21.10
2023-01-06T20:01:45.660Z,21.20
2023-01-06T20:04:19.427Z,21.10
2023-01-06T20:06:46.118Z,21.10
2023-01-06T20:09:13.138Z,21.10
2023-01-06T20:11:41.797Z,21.00
2023-01-06T20:14:09.792Z,21.00
2023-01-06T20:16:36.715Z,20.90
2023-01-06T20:19:03.663Z,20.90
2023-01-06T20:21:30.366Z,20.90
2023-01-06T20:23:58.437Z,20.90
2023-01-06T20:26:25.477Z,20.90
2023-01-06T20:28:52.318Z,20.90
2023-01-06T20:31:19.081Z,20.90
2023-01-06T20:33:47.211Z,20.80
2023-01-06T20:36:17.297Z,20.80
2023-01-06T20:38:46.677Z,20.80
2023-01-06T20:41:14.193Z,20.80
2023-01-06T20:43:40.940Z,20.90
2023-01-06T20:46:07.692Z,20.90
2023-01-06T20:48:34.511Z,20.90
2023-01-06T20:51:01.264Z,20.90
2023-01-06T20:53:28.101Z,20.90
2023-01-06T20:55:54.836Z,20.90
2023-01-06T20:58:21.549Z,20.90
2023-01-06T21:00:48.321Z,20.90
2023-01-06T21:03:16.209Z,20.90
2023-01-06T21:05:42.896Z,20.90
2023-01-06T21:08:09.618Z,20.90
2023-01-06T21:10:37.321Z,20.90
2023-01-06T21:13:04.165Z,20.90
2023-01-06T21:15:30.833Z,20.90
2023-01-06T21:17:57.511Z,20.90
2023-01-06T21:20:24.249Z,20.90
2023-01-06T21:22:50.924Z,20.90
2023-01-06T21:25:19.680Z,20.90
2023-01-06T21:27:46.726Z,20.90
2023-01-06T21:30:14.671Z,20.90
2023-01-06T21:32:42.040Z,20.90
2023-01-06T21:35:09.101Z,20.80
2023-01-06T21:37:35.795Z,20.90
2023-01-06T21:40:06.964Z,20.90
2023-01-06T21:42:52.231Z,20.90
2023-01-06T21:45:18.878Z,20.90
2023-01-06T21:47:46.627Z,20.90
2023-01-06T21:50:13.552Z,20.90
2023-01-06T21:52:40.244Z,20.80
2023-01-06T21:55:07.194Z,20.80
2023-01-06T21:57:33.882Z,20.80
2023-01-06T22:00:00.569Z,20.80
2023-01-06T22:02:27.378Z,20.80
2023-01-06T22:04:54.446Z,20.80
2023-01-06T22:07:21.759Z,20.80
2023-01-06T22:09:48.768Z,20.70
2023-01-06T22:12:16.850Z,20.70
2023-01-06T22:14:44.102Z,20.70
2023-01-06T22:17:11.067Z,20.70
2023-01-06T22:19:38.095Z,20.70
2023-01-06T22:22:05.026Z,20.70
2023-01-06T22:24:31.933Z,20.70
2023-01-06T22:26:58.914Z,20.80
2023-01-06T22:29:26.042Z,20.80
2023-01-06T22:31:53.071Z,20.80
2023-01-06T22:34:20.534Z,20.80
2023-01-06T22:36:48.621Z,20.80
2023-01-06T22:39:15.758Z,20.70
2023-01-06T22:41:42.476Z,20.80
2023-01-06T22:44:09.235Z,20.80
2023-01-06T22:46:35.961Z,20.80
2023-01-06T22:49:02.789Z,20.80
2023-01-06T22:51:29.558Z,20.80
2023-01-06T22:53:56.986Z,20.80
2023-01-06T22:56:23.697Z,20.80
2023-01-06T22:58:51.086Z,20.80
2023-01-06T23:01:18.065Z,20.70
2023-01-06T23:03:44.935Z,20.80
2023-01-06T23:06:12.965Z,20.80
2023-01-06T23:08:48.092Z,20.70
2023-01-06T23:11:22.776Z,20.80
2023-01-06T23:13:54.185Z,20.80
2023-01-06T23:16:22.778Z,20.70
2023-01-06T23:18:50.591Z,20.70
2023-01-06T23:21:21.687Z,20.70
2023-01-06T23:23:49.014Z,20.70
2023-01-06T23:26:17.509Z,20.70
2023-01-06T23:28:44.403Z,20.70
2023-01-06T23:31:13.162Z,20.60
2023-01-06T23:33:40.840Z,20.60
2023-01-06T23:36:08.914Z,20.60
2023-01-06T23:38:35.691Z,20.70
2023-01-06T23:41:03.794Z,20.60
2023-01-06T23:43:31.427Z,20.70
2023-01-06T23:46:02.328Z,20.70
2023-01-06T23:48:30.604Z,20.70
2023-01-06T23:50:57.657Z,20.70
2023-01-06T23:53:24.772Z,20.70
2023-01-06T23:55:59.062Z,20.70
2023-01-06T23:58:26.217Z,20.60
